Time;durP1;ratioP1;P1;durP2;ratioP2;P2;SDS_P1;SDS_P2;PMS_P1;PMS_P2;Temp;Humidity;BMP_temperature;BMP_pressure;BME280_temperature;BME280_humidity;BME280_pressure;Samples;Min_cycle;Max_cycle;Signal;HPM_P1;HPM_P2
2022/03/10 00:00:18;;;;;;;39.57;34.93;;;4.30;91.60;;;;;;4361753;32;20698;-62
2022/03/10 00:02:45;;;;;;;38.50;34.47;;;4.30;91.80;;;;;;4361769;33;20137;-61
2022/03/10 00:05:15;;;;;;;39.60;35.53;;;4.20;91.80;;;;;;4361678;32;20153;-61
2022/03/10 00:07:42;;;;;;;43.93;34.00;;;4.20;91.90;;;;;;4361530;32;20145;-61
2022/03/10 00:10:10;;;;;;;42.47;38.23;;;4.10;92.00;;;;;;4361641;33;20189;-61
2022/03/10 00:12:39;;;;;;;38.53;34.63;;;4.10;92.20;;;;;;4362577;32;20208;-62
2022/03/10 00:15:09;;;;;;;39.70;35.60;;;4.00;92.20;;;;;;4362112;32;20145;-61
2022/03/10 00:17:36;;;;;;;38.17;34.47;;;4.00;92.50;;;;;;4361475;33;20191;-61
2022/03/10 00:20:04;;;;;;;39.67;35.47;;;3.90;92.60;;;;;;4360827;32;20172;-62
2022/03/10 00:22:32;;;;;;;44.57;39.90;;;3.90;92.90;;;;;;4361495;33;20156;-61
2022/03/10 00:24:58;;;;;;;40.83;36.77;;;3.80;93.20;;;;;;4361495;33;20244;-61
2022/03/10 00:27:25;;;;;;;45.97;41.67;;;3.80;93.30;;;;;;4361581;33;20168;-61
2022/03/10 00:29:52;;;;;;;38.53;34.57;;;3.60;93.30;;;;;;4360813;32;20208;-60
2022/03/10 00:32:19;;;;;;;41.20;37.00;;;3.60;93.70;;;;;;4361558;32;20200;-61
2022/03/10 00:34:45;;;;;;;41.13;37.40;;;3.60;93.50;;;;;;4360866;32;20144;-61
2022/03/10 00:37:12;;;;;;;41.90;37.40;;;3.60;93.70;;;;;;4362043;32;20148;-61
2022/03/10 00:39:40;;;;;;;44.20;40.07;;;3.50;93.90;;;;;;4361129;33;20242;-61
2022/03/10 00:42:10;;;;;;;43.97;39.67;;;3.40;94.10;;;;;;4361389;32;20187;-61
2022/03/10 00:44:36;;;;;;;43.13;38.60;;;3.40;94.30;;;;;;4360556;32;20192;-61
2022/03/10 00:47:04;;;;;;;43.30;38.93;;;3.30;94.40;;;;;;4360998;33;20220;-61
2022/03/10 00:49:30;;;;;;;46.37;42.07;;;3.30;94.70;;;;;;4361053;33;20204;-61
2022/03/10 00:51:57;;;;;;;47.93;43.17;;;3.20;95.00;;;;;;4361418;32;20204;-61
2022/03/10 00:54:24;;;;;;;48.60;44.13;;;3.20;95.10;;;;;;4357795;33;20214;-61
2022/03/10 00:56:52;;;;;;;46.87;42.43;;;3.20;95.20;;;;;;4357192;32;20236;-61
2022/03/10 00:59:19;;;;;;;48.63;44.13;;;3.10;95.50;;;;;;4378146;32;20260;-61
2022/03/10 01:01:46;;;;;;;44.93;40.67;;;3.10;95.60;;;;;;4390951;32;20171;-61
2022/03/10 01:04:13;;;;;;;47.70;43.33;;;3.20;95.60;;;;;;4390898;32;20179;-61
2022/03/10 01:06:40;;;;;;;46.10;41.83;;;3.20;95.80;;;;;;4390806;32;20178;-61
2022/03/10 01:09:06;;;;;;;47.00;42.57;;;3.10;95.60;;;;;;4390752;32;20142;-61
2022/03/10 01:11:34;;;;;;;44.57;40.47;;;3.10;95.80;;;;;;4385337;32;20223;-61
2022/03/10 01:14:02;;;;;;;45.87;41.60;;;3.10;95.90;;;;;;4379932;32;20579;-61
2022/03/10 01:16:29;;;;;;;47.37;42.47;;;3.10;96.10;;;;;;4375134;32;20549;-61
2022/03/10 01:18:56;;;;;;;48.37;43.53;;;3.00;96.00;;;;;;4375011;32;20663;-61
2022/03/10 01:21:22;;;;;;;47.43;42.90;;;3.10;95.90;;;;;;4377690;32;20186;-61
2022/03/10 01:23:49;;;;;;;48.43;44.07;;;3.10;95.80;;;;;;4378199;32;20667;-61
2022/03/10 01:26:16;;;;;;;50.10;45.47;;;3.10;96.40;;;;;;4382038;32;20172;-61
2022/03/10 01:28:43;;;;;;;50.80;45.93;;;3.10;96.70;;;;;;4375649;32;20158;-62
2022/03/10 01:31:13;;;;;;;47.67;43.10;;;3.10;96.30;;;;;;4375303;32;20155;-61
2022/03/10 01:33:41;;;;;;;49.87;45.27;;;3.10;96.60;;;;;;4380757;32;20144;-61
2022/03/10 01:36:10;;;;;;;47.93;43.43;;;3.10;96.60;;;;;;4377326;32;20175;-61
2022/03/10 01:38:42;;;;;;;48.77;44.33;;;3.10;96.90;;;;;;4381622;32;20215;-60
2022/03/10 01:41:09;;;;;;;48.70;43.90;;;3.20;96.80;;;;;;4378240;32;20259;-60
2022/03/10 01:43:55;;;;;;;50.33;45.67;;;3.00;96.80;;;;;;4380746;32;20643;-60
2022/03/10 01:46:25;;;;;;;51.27;46.50;;;3.00;97.30;;;;;;4375560;32;20631;-60
2022/03/10 01:48:53;;;;;;;52.63;47.93;;;3.00;97.50;;;;;;4375471;32;20163;-60
2022/03/10 01:51:20;;;;;;;48.37;44.07;;;2.90;97.60;;;;;;4377054;32;20251;-60
2022/03/10 01:53:48;;;;;;;49.47;44.93;;;2.80;97.60;;;;;;4385669;32;20178;-60
2022/03/10 01:56:16;;;;;;;49.53;45.03;;;2.80;97.50;;;;;;4390228;32;20171;-60
2022/03/10 01:58:43;;;;;;;51.30;46.30;;;2.80;97.80;;;;;;4390365;32;20222;-60
2022/03/10 02:01:10;;;;;;;49.80;44.97;;;2.80;98.10;;;;;;4389845;32;20210;-60
2022/03/10 02:03:39;;;;;;;52.77;47.90;;;2.80;97.80;;;;;;4391217;32;20173;-60
2022/03/10 02:06:07;;;;;;;52.60;47.93;;;2.70;98.20;;;;;;4389875;32;20572;-60
2022/03/10 02:11:19;;;;;;;49.83;45.13;;;2.80;98.30;;;;;;4391906;32;20170;-62
2022/03/10 02:13:46;;;;;;;53.00;48.23;;;2.80;98.40;;;;;;4390279;32;20204;-62
2022/03/10 02:19:00;;;;;;;50.00;45.53;;;2.80;98.90;;;;;;4390979;32;20168;-61
2022/03/10 02:21:27;;;;;;;53.77;48.77;;;2.80;98.80;;;;;;4390368;32;20557;-61
2022/03/10 02:23:55;;;;;;;54.53;49.53;;;3.00;98.80;;;;;;4389876;32;20162;-61
2022/03/10 02:26:22;;;;;;;55.50;50.57;;;2.80;98.90;;;;;;4390021;32;20218;-61
2022/03/10 02:28:50;;;;;;;53.33;48.67;;;2.80;99.10;;;;;;4390161;32;20147;-62
2022/03/10 02:31:17;;;;;;;54.00;49.07;;;2.80;99.20;;;;;;4390284;32;20511;-61
2022/03/10 02:33:44;;;;;;;50.57;45.97;;;2.80;99.50;;;;;;4389167;32;20134;-62
2022/03/10 02:36:11;;;;;;;53.97;49.13;;;2.80;99.20;;;;;;4390405;32;20149;-62
2022/03/10 02:38:37;;;;;;;52.07;47.10;;;2.80;99.40;;;;;;4390075;32;20206;-59
2022/03/10 02:41:06;;;;;;;53.13;48.47;;;2.80;99.50;;;;;;4389890;32;20199;-63
2022/03/10 02:43:32;;;;;;;56.57;51.33;;;2.70;99.50;;;;;;4391375;32;20128;-61
2022/03/10 02:45:59;;;;;;;50.40;45.30;;;2.70;99.60;;;;;;4389589;32;20156;-59
2022/03/10 02:48:26;;;;;;;54.63;49.77;;;2.70;99.60;;;;;;4390649;32;20561;-60
2022/03/10 02:50:53;;;;;;;52.27;47.73;;;2.80;99.60;;;;;;4390035;32;20165;-62
2022/03/10 02:53:19;;;;;;;57.83;52.57;;;2.80;99.80;;;;;;4390581;32;20167;-62
2022/03/10 02:55:46;;;;;;;53.23;48.17;;;2.80;99.90;;;;;;4393504;32;20162;-62
2022/03/10 02:58:14;;;;;;;52.90;48.13;;;2.80;99.90;;;;;;4394394;32;20166;-59
2022/03/10 03:00:41;;;;;;;53.80;49.23;;;2.80;99.90;;;;;;4392103;32;20523;-62
2022/03/10 03:03:08;;;;;;;54.87;49.47;;;2.80;99.90;;;;;;4393687;32;20591;-63
2022/03/10 03:05:35;;;;;;;52.00;47.57;;;2.80;99.90;;;;;;4393376;32;20554;-60
2022/03/10 03:08:02;;;;;;;53.83;48.83;;;2.80;99.90;;;;;;4392535;32;20143;-60
2022/03/10 03:10:29;;;;;;;52.60;47.80;;;2.80;99.90;;;;;;4392616;32;20191;-62
2022/03/10 03:12:56;;;;;;;52.60;47.30;;;2.80;99.90;;;;;;4392493;32;20144;-61
2022/03/10 03:15:24;;;;;;;50.73;46.30;;;2.90;99.90;;;;;;4392492;32;20205;-59
2022/03/10 03:17:51;;;;;;;52.77;48.10;;;2.90;99.90;;;;;;4392133;32;20577;-60
2022/03/10 03:20:18;;;;;;;53.70;48.83;;;2.90;99.90;;;;;;4392308;32;20566;-59
2022/03/10 03:22:45;;;;;;;52.87;48.60;;;2.80;99.90;;;;;;4392424;32;20175;-61
2022/03/10 03:25:14;;;;;;;53.53;48.73;;;2.90;99.90;;;;;;4392012;32;20188;-60
2022/03/10 03:27:42;;;;;;;53.50;48.93;;;2.90;99.90;;;;;;4392150;32;20199;-61
2022/03/10 03:30:10;;;;;;;51.03;46.50;;;2.90;99.90;;;;;;4392403;32;20564;-62
2022/03/10 03:32:38;;;;;;;56.17;51.20;;;2.80;99.90;;;;;;4392267;32;20215;-60
2022/03/10 03:35:07;;;;;;;50.57;45.97;;;2.90;99.90;;;;;;4392313;32;20560;-61
2022/03/10 03:37:34;;;;;;;53.40;48.43;;;2.90;99.90;;;;;;4389715;32;20198;-61
2022/03/10 03:40:01;;;;;;;54.83;49.70;;;2.90;99.90;;;;;;4383252;32;20488;-60
2022/03/10 03:42:32;;;;;;;53.33;48.83;;;3.00;99.90;;;;;;4392297;32;20154;-62
2022/03/10 03:44:59;;;;;;;53.60;48.87;;;2.90;99.90;;;;;;4391995;32;20202;-60
2022/03/10 03:47:26;;;;;;;55.77;50.90;;;2.80;99.90;;;;;;4393530;32;20172;-59
2022/03/10 03:49:54;;;;;;;52.47;48.00;;;2.90;99.90;;;;;;4392010;32;20154;-60
2022/03/10 03:52:21;;;;;;;52.17;47.40;;;2.90;99.90;;;;;;4391842;32;20193;-59
2022/03/10 03:54:48;;;;;;;51.00;46.40;;;2.80;99.90;;;;;;4392070;32;20199;-60
2022/03/10 03:57:14;;;;;;;54.17;49.30;;;2.90;99.90;;;;;;4391368;32;20141;-60
2022/03/10 03:59:41;;;;;;;55.13;49.90;;;2.90;99.90;;;;;;4391712;32;20237;-59
2022/03/10 04:02:08;;;;;;;51.43;46.53;;;2.90;99.90;;;;;;4391988;32;20147;-63
2022/03/10 04:04:35;;;;;;;53.07;48.37;;;2.90;99.90;;;;;;4391608;32;20195;-59
2022/03/10 04:07:04;;;;;;;54.27;49.17;;;2.90;99.90;;;;;;4393405;32;20189;-61
2022/03/10 04:09:31;;;;;;;55.00;50.13;;;2.90;99.90;;;;;;4392441;32;20191;-61
2022/03/10 04:11:57;;;;;;;52.40;47.57;;;3.00;99.90;;;;;;4392179;32;20162;-62
2022/03/10 04:14:24;;;;;;;54.50;49.37;;;3.00;99.90;;;;;;4391662;32;20227;-61
2022/03/10 04:16:51;;;;;;;53.73;49.23;;;3.00;99.90;;;;;;4391475;32;20179;-58
2022/03/10 04:19:18;;;;;;;53.07;47.97;;;3.00;99.90;;;;;;4391699;32;20202;-58
2022/03/10 04:21:45;;;;;;;51.37;46.17;;;3.00;99.90;;;;;;4393120;32;20433;-61
2022/03/10 04:24:13;;;;;;;50.77;46.03;;;3.00;99.90;;;;;;4391398;32;20194;-59
2022/03/10 04:26:40;;;;;;;51.70;47.27;;;3.00;99.90;;;;;;4390053;32;20336;-59
2022/03/10 04:29:07;;;;;;;52.80;48.33;;;3.00;99.90;;;;;;4382933;32;20158;-60
2022/03/10 04:31:34;;;;;;;51.57;47.07;;;2.90;99.90;;;;;;4391467;32;20210;-60
2022/03/10 04:34:01;;;;;;;53.10;48.03;;;2.90;99.90;;;;;;4378888;32;20638;-59
2022/03/10 04:36:28;;;;;;;54.50;49.03;;;2.90;99.90;;;;;;4377944;32;20210;-60
2022/03/10 04:38:55;;;;;;;52.00;47.57;;;2.80;99.90;;;;;;4391482;32;20484;-60
2022/03/10 04:41:25;;;;;;;53.03;48.50;;;2.80;99.90;;;;;;4391304;32;20240;-61
2022/03/10 04:43:52;;;;;;;53.23;48.83;;;2.90;99.90;;;;;;4391076;32;20204;-60
2022/03/10 04:46:19;;;;;;;55.53;50.77;;;2.80;99.90;;;;;;4390913;32;20184;-59
2022/03/10 04:48:46;;;;;;;55.00;49.90;;;2.70;99.90;;;;;;4391058;32;20177;-58
2022/03/10 04:51:12;;;;;;;56.10;50.87;;;2.70;99.90;;;;;;4390801;32;20220;-61
2022/03/10 04:53:39;;;;;;;53.33;48.77;;;2.60;99.90;;;;;;4392331;32;20531;-60
2022/03/10 04:56:09;;;;;;;54.23;49.73;;;2.60;99.90;;;;;;4391196;32;20150;-59
2022/03/10 04:58:37;;;;;;;51.77;47.40;;;2.60;99.90;;;;;;4391002;32;20155;-62
2022/03/10 05:01:04;;;;;;;58.37;53.07;;;2.60;99.90;;;;;;4390897;32;20213;-59
2022/03/10 05:03:32;;;;;;;59.27;53.97;;;2.60;99.90;;;;;;4392745;32;20140;-62
2022/03/10 05:05:59;;;;;;;57.43;52.73;;;2.60;99.90;;;;;;4390348;32;20163;-61
2022/03/10 05:08:26;;;;;;;55.87;50.97;;;2.70;99.90;;;;;;4390741;32;20173;-60
2022/03/10 05:10:52;;;;;;;55.43;50.40;;;2.70;99.90;;;;;;4390838;32;20170;-61
2022/03/10 05:13:20;;;;;;;58.47;53.43;;;2.70;99.90;;;;;;4390774;32;20468;-60
2022/03/10 05:15:48;;;;;;;56.17;51.47;;;2.70;99.90;;;;;;4390468;32;20162;-60
2022/03/10 05:18:15;;;;;;;53.90;49.40;;;2.60;99.90;;;;;;4390496;32;20210;-61
2022/03/10 05:20:42;;;;;;;56.23;50.97;;;2.60;99.90;;;;;;4390689;32;20205;-61
2022/03/10 05:23:09;;;;;;;55.73;50.73;;;2.50;99.90;;;;;;4390909;32;20159;-61
2022/03/10 05:25:37;;;;;;;55.07;49.70;;;2.50;99.90;;;;;;4391139;32;20565;-61
2022/03/10 05:28:06;;;;;;;56.47;51.13;;;2.40;99.90;;;;;;4390803;32;20175;-61
2022/03/10 05:30:34;;;;;;;56.47;51.40;;;2.40;99.90;;;;;;4390718;32;20146;-61
2022/03/10 05:33:02;;;;;;;57.47;52.40;;;2.40;99.90;;;;;;4390219;32;20347;-61
2022/03/10 05:35:29;;;;;;;54.23;49.00;;;2.40;99.90;;;;;;4390816;32;20442;-62
2022/03/10 05:37:57;;;;;;;55.83;50.73;;;2.40;99.90;;;;;;4389879;32;20189;-63
2022/03/10 05:40:24;;;;;;;55.77;50.63;;;2.40;99.90;;;;;;4388550;32;20171;-60
2022/03/10 05:42:54;;;;;;;56.10;51.00;;;2.30;99.90;;;;;;4390117;32;20216;-60
2022/03/10 05:45:22;;;;;;;56.37;51.47;;;2.30;99.90;;;;;;4389235;32;20219;-62
2022/03/10 05:47:49;;;;;;;55.20;50.57;;;2.30;99.90;;;;;;4390390;32;20153;-61
2022/03/10 05:50:18;;;;;;;56.07;50.97;;;2.20;99.90;;;;;;4389023;32;20645;-61
2022/03/10 05:52:45;;;;;;;56.97;51.97;;;2.20;99.90;;;;;;4389376;32;20483;-58
2022/03/10 05:55:14;;;;;;;58.43;52.83;;;2.30;99.90;;;;;;4389679;32;20144;-61
2022/03/10 05:57:41;;;;;;;57.63;52.80;;;2.30;99.90;;;;;;4390831;32;20154;-59
2022/03/10 06:00:10;;;;;;;52.90;48.23;;;2.30;99.90;;;;;;4388170;32;20595;-59
2022/03/10 06:02:40;;;;;;;55.40;50.33;;;2.30;99.90;;;;;;4387997;32;20232;-59
2022/03/10 06:05:10;;;;;;;56.93;52.03;;;2.30;99.90;;;;;;4388931;32;20186;-62
2022/03/10 06:07:38;;;;;;;54.50;49.73;;;2.30;99.90;;;;;;4389076;32;20623;-59
2022/03/10 06:10:06;;;;;;;54.53;49.90;;;2.30;99.90;;;;;;4389008;32;20223;-59
2022/03/10 06:12:33;;;;;;;54.70;49.80;;;2.30;99.90;;;;;;4389532;32;20222;-61
2022/03/10 06:15:01;;;;;;;55.73;50.90;;;2.20;99.90;;;;;;4389685;32;20282;-61
2022/03/10 06:17:29;;;;;;;54.70;49.53;;;2.20;99.90;;;;;;4389097;32;20197;-61
2022/03/10 06:19:57;;;;;;;52.30;47.57;;;2.20;99.90;;;;;;4387001;32;20225;-59
2022/03/10 06:22:26;;;;;;;54.20;49.60;;;2.20;99.90;;;;;;4389149;32;20149;-59
2022/03/10 06:24:54;;;;;;;55.93;51.17;;;2.30;99.90;;;;;;4388171;32;20175;-59
2022/03/10 06:27:23;;;;;;;55.37;50.47;;;2.30;99.90;;;;;;4388274;32;20639;-60
2022/03/10 06:29:50;;;;;;;54.37;49.87;;;2.30;99.90;;;;;;4391690;32;20136;-60
2022/03/10 06:32:18;;;;;;;54.30;49.63;;;2.40;99.90;;;;;;4391175;32;20229;-62
2022/03/10 06:34:45;;;;;;;53.60;48.83;;;2.50;99.90;;;;;;4390299;32;20156;-59
2022/03/10 06:37:13;;;;;;;53.43;48.87;;;2.50;99.90;;;;;;4391190;32;20297;-60
2022/03/10 06:39:40;;;;;;;60.40;55.23;;;2.60;99.90;;;;;;4390742;32;20265;-60
2022/03/10 06:42:09;;;;;;;52.87;48.10;;;2.70;99.90;;;;;;4392747;32;20165;-61
2022/03/10 06:44:37;;;;;;;53.23;48.30;;;2.70;99.90;;;;;;4391460;32;20153;-60
2022/03/10 06:47:13;;;;;;;53.07;48.63;;;2.70;99.90;;;;;;4391494;32;20198;-60
2022/03/10 06:49:40;;;;;;;51.47;46.80;;;2.80;99.90;;;;;;4391219;32;20217;-59
2022/03/10 06:52:08;;;;;;;55.37;50.47;;;2.80;99.90;;;;;;4390072;32;20217;-61
2022/03/10 06:54:35;;;;;;;50.00;45.60;;;2.90;99.90;;;;;;4384951;32;20156;-62
2022/03/10 06:57:02;;;;;;;50.53;45.53;;;3.10;99.90;;;;;;4390849;32;20259;-58
2022/03/10 06:59:31;;;;;;;52.33;47.53;;;3.10;99.90;;;;;;4390158;32;20222;-60
2022/03/10 07:01:57;;;;;;;56.07;51.50;;;3.30;99.90;;;;;;4389260;32;20202;-59
2022/03/10 07:04:26;;;;;;;49.63;45.10;;;3.40;99.90;;;;;;4390324;32;20215;-60
2022/03/10 07:06:53;;;;;;;49.70;45.13;;;3.50;99.90;;;;;;4390345;32;20227;-59
2022/03/10 07:09:20;;;;;;;50.90;45.63;;;3.60;99.90;;;;;;4390592;32;20190;-59
2022/03/10 07:11:47;;;;;;;49.47;44.90;;;3.70;99.90;;;;;;4388233;32;20149;-59
2022/03/10 07:14:14;;;;;;;48.77;44.23;;;3.80;99.90;;;;;;4391434;32;20547;-58
2022/03/10 07:16:43;;;;;;;48.37;43.87;;;4.00;99.90;;;;;;4390981;32;20153;-59
2022/03/10 07:19:10;;;;;;;48.60;44.10;;;4.00;99.90;;;;;;4390797;32;20198;-60
2022/03/10 07:21:40;;;;;;;47.30;42.80;;;4.10;99.90;;;;;;4391293;32;20178;-60
2022/03/10 07:24:09;;;;;;;50.03;45.10;;;4.20;99.90;;;;;;4392394;32;20186;-60
2022/03/10 07:26:37;;;;;;;51.77;47.10;;;4.30;99.80;;;;;;4391732;32;20168;-60
2022/03/10 07:29:04;;;;;;;47.27;43.07;;;4.40;99.60;;;;;;4392630;32;20157;-59
2022/03/10 07:31:32;;;;;;;48.80;43.93;;;4.40;99.50;;;;;;4392347;32;20186;-58
2022/03/10 07:34:01;;;;;;;55.37;50.37;;;4.60;99.20;;;;;;4391549;32;20214;-59
2022/03/10 07:36:28;;;;;;;50.53;46.00;;;4.70;99.10;;;;;;4390850;32;20224;-59
2022/03/10 07:38:57;;;;;;;48.83;44.33;;;4.80;98.70;;;;;;4391699;32;20152;-59
2022/03/10 07:41:24;;;;;;;48.47;43.97;;;4.90;98.80;;;;;;4379478;32;20479;-59
2022/03/10 07:43:51;;;;;;;47.97;43.20;;;5.00;98.60;;;;;;4391192;32;20501;-60
2022/03/10 07:46:22;;;;;;;48.67;44.03;;;5.10;98.20;;;;;;4391379;32;20211;-58
2022/03/10 07:48:49;;;;;;;47.07;42.60;;;5.30;98.20;;;;;;4391607;32;20162;-61
2022/03/10 07:51:18;;;;;;;46.27;41.97;;;5.50;97.90;;;;;;4392296;32;20460;-58
2022/03/10 07:53:44;;;;;;;49.20;44.23;;;5.60;97.80;;;;;;4392109;32;20167;-59
2022/03/10 07:56:11;;;;;;;47.37;43.03;;;5.70;97.40;;;;;;4392194;32;20534;-60
2022/03/10 07:58:38;;;;;;;46.27;41.90;;;5.90;96.60;;;;;;4392490;32;20484;-60
2022/03/10 08:01:05;;;;;;;47.63;43.43;;;6.10;96.60;;;;;;4390049;32;20168;-60
2022/03/10 08:03:32;;;;;;;46.23;41.87;;;6.30;96.50;;;;;;4392009;32;20164;-60
2022/03/10 08:05:59;;;;;;;44.70;40.33;;;6.40;96.10;;;;;;4392629;32;20148;-60
2022/03/10 08:08:27;;;;;;;45.43;40.77;;;6.50;95.80;;;;;;4391943;32;20553;-60
2022/03/10 08:10:54;;;;;;;43.17;38.97;;;6.60;95.60;;;;;;4391919;32;20183;-59
2022/03/10 08:13:25;;;;;;;44.07;39.50;;;6.70;95.30;;;;;;4391904;32;20148;-59
2022/03/10 08:15:52;;;;;;;42.27;38.10;;;6.90;94.80;;;;;;4391923;32;20140;-61
2022/03/10 08:18:18;;;;;;;45.40;40.33;;;6.90;95.00;;;;;;4391776;32;20136;-59
2022/03/10 08:20:45;;;;;;;46.93;42.20;;;7.10;94.70;;;;;;4392064;32;20148;-59
2022/03/10 08:23:12;;;;;;;44.77;40.27;;;7.20;94.50;;;;;;4391693;32;20174;-59
2022/03/10 08:25:40;;;;;;;48.67;44.13;;;7.30;94.40;;;;;;4391510;32;20145;-59
2022/03/10 08:28:08;;;;;;;45.97;41.77;;;7.40;94.10;;;;;;4392045;32;20212;-60
2022/03/10 08:30:35;;;;;;;43.00;38.50;;;7.50;94.30;;;;;;4391689;32;20158;-60
2022/03/10 08:33:02;;;;;;;41.77;37.00;;;7.60;94.00;;;;;;4391636;32;20166;-59
2022/03/10 08:35:29;;;;;;;42.53;37.50;;;7.70;93.70;;;;;;4391480;32;20172;-59
2022/03/10 08:37:56;;;;;;;43.33;38.80;;;7.90;93.50;;;;;;4392149;32;20144;-59
2022/03/10 08:40:23;;;;;;;44.40;39.63;;;7.90;93.40;;;;;;4391663;32;20152;-58
2022/03/10 08:42:52;;;;;;;45.47;40.90;;;8.00;93.40;;;;;;4391133;32;20151;-60
2022/03/10 08:45:19;;;;;;;42.00;37.77;;;8.20;93.20;;;;;;4392848;32;20157;-60
2022/03/10 08:47:47;;;;;;;40.10;35.83;;;8.30;93.20;;;;;;4391305;32;20503;-60
2022/03/10 08:50:13;;;;;;;43.50;37.40;;;8.30;93.00;;;;;;4391116;32;20146;-59
2022/03/10 08:52:41;;;;;;;43.93;39.20;;;8.40;92.90;;;;;;4390856;32;20156;-59
2022/03/10 08:55:12;;;;;;;39.17;35.17;;;8.50;93.00;;;;;;4391068;32;20575;-60
2022/03/10 08:57:40;;;;;;;41.20;37.20;;;8.50;93.00;;;;;;4391782;32;20291;-60
2022/03/10 09:00:12;;;;;;;42.37;37.97;;;8.60;92.90;;;;;;4391207;32;20146;-60
2022/03/10 09:02:40;;;;;;;44.03;39.47;;;8.60;92.80;;;;;;4390411;32;20170;-60
2022/03/10 09:05:08;;;;;;;41.47;37.33;;;8.70;92.80;;;;;;4390943;32;20136;-60
2022/03/10 09:07:35;;;;;;;42.07;37.67;;;8.80;93.00;;;;;;4391048;32;20229;-60
2022/03/10 09:10:02;;;;;;;40.60;36.43;;;8.90;92.70;;;;;;4391564;32;20262;-60
2022/03/10 09:12:29;;;;;;;43.70;39.40;;;8.90;92.70;;;;;;4390966;32;20164;-61
2022/03/10 09:14:55;;;;;;;40.50;36.50;;;9.00;92.60;;;;;;4390804;32;20549;-60
2022/03/10 09:17:24;;;;;;;41.27;36.87;;;9.10;92.50;;;;;;4390915;32;20190;-60
2022/03/10 09:19:51;;;;;;;43.27;37.17;;;9.20;92.50;;;;;;4390889;32;20161;-60
2022/03/10 09:22:18;;;;;;;44.37;39.73;;;9.20;92.70;;;;;;4391691;32;20496;-60
2022/03/10 09:24:45;;;;;;;42.20;37.80;;;9.40;92.40;;;;;;4390951;32;20192;-61
2022/03/10 09:27:12;;;;;;;42.60;38.47;;;9.40;92.50;;;;;;4390661;32;20154;-61
2022/03/10 09:29:39;;;;;;;46.03;41.83;;;9.50;92.40;;;;;;4391827;32;20155;-60
2022/03/10 09:32:06;;;;;;;42.13;37.70;;;9.70;92.50;;;;;;4392109;32;20174;-59
2022/03/10 09:34:34;;;;;;;41.37;37.13;;;9.70;92.30;;;;;;4390486;32;20141;-60
2022/03/10 09:37:01;;;;;;;40.30;36.07;;;9.80;92.10;;;;;;4391761;32;20146;-59
2022/03/10 09:39:28;;;;;;;42.80;38.40;;;9.90;92.10;;;;;;4390946;32;20190;-60
2022/03/10 09:41:57;;;;;;;43.57;39.23;;;9.90;92.00;;;;;;4390720;32;20202;-60
2022/03/10 09:44:28;;;;;;;42.53;37.83;;;10.00;92.30;;;;;;4390714;32;20490;-61
2022/03/10 09:47:02;;;;;;;39.93;36.33;;;10.10;92.30;;;;;;4390524;32;20603;-61
2022/03/10 09:49:29;;;;;;;42.80;38.70;;;10.20;92.20;;;;;;4390701;32;20196;-60
2022/03/10 09:51:57;;;;;;;40.77;36.67;;;10.30;92.00;;;;;;4390548;32;20159;-61
2022/03/10 09:54:24;;;;;;;42.07;37.07;;;10.30;92.00;;;;;;4390836;32;20564;-61
2022/03/10 09:56:51;;;;;;;45.47;41.10;;;10.40;91.70;;;;;;4391891;32;20142;-60
2022/03/10 09:59:22;;;;;;;48.50;40.37;;;10.50;92.00;;;;;;4390358;32;20556;-61
2022/03/10 10:01:50;;;;;;;43.37;38.77;;;10.50;91.80;;;;;;4390462;32;20194;-60
2022/03/10 10:04:21;;;;;;;43.77;39.70;;;10.60;91.50;;;;;;4390472;32;20156;-61
2022/03/10 10:07:10;;;;;;;41.27;37.27;;;10.70;92.10;;;;;;4390387;32;20146;-61
2022/03/10 10:09:45;;;;;;;44.13;39.63;;;10.90;92.00;;;;;;4358168;33;20245;-61
2022/03/10 10:12:13;;;;;;;45.77;40.77;;;10.90;91.80;;;;;;4358367;33;20165;-61
2022/03/10 10:14:42;;;;;;;42.97;38.47;;;10.90;91.50;;;;;;4358794;33;20221;-62
2022/03/10 10:17:09;;;;;;;41.33;37.00;;;11.00;91.50;;;;;;4359038;33;20148;-60
2022/03/10 10:19:37;;;;;;;40.67;36.63;;;11.10;91.40;;;;;;4358200;33;20243;-60
2022/03/10 10:22:13;;;;;;;42.87;38.83;;;11.20;91.40;;;;;;4358188;33;20220;-61
2022/03/10 10:24:40;;;;;;;42.90;38.87;;;11.40;91.40;;;;;;4358282;33;20240;-60
2022/03/10 10:27:14;;;;;;;45.00;40.33;;;11.40;91.10;;;;;;4358944;33;20180;-60
2022/03/10 10:29:48;;;;;;;40.23;36.17;;;11.50;91.30;;;;;;4359586;33;20166;-62
2022/03/10 10:32:25;;;;;;;39.20;35.30;;;11.50;91.00;;;;;;4358138;33;20214;-60
2022/03/10 10:35:00;;;;;;;43.03;38.77;;;11.50;90.50;;;;;;4358614;33;20156;-62
2022/03/10 10:37:28;;;;;;;42.57;37.97;;;11.60;90.80;;;;;;4358101;33;20290;-60
2022/03/10 10:39:58;;;;;;;39.43;35.23;;;11.60;90.70;;;;;;4358032;33;20220;-60
2022/03/10 10:42:29;;;;;;;41.40;37.40;;;11.70;91.00;;;;;;4358078;33;20153;-60
2022/03/10 10:44:57;;;;;;;38.80;34.77;;;11.80;90.70;;;;;;4358125;33;20192;-60
2022/03/10 10:47:28;;;;;;;40.30;36.43;;;11.90;90.40;;;;;;4384274;32;20167;-62
2022/03/10 10:50:00;;;;;;;40.23;36.00;;;11.90;90.40;;;;;;4390713;32;20163;-60
2022/03/10 10:52:37;;;;;;;37.70;34.03;;;12.00;90.60;;;;;;4390124;32;20144;-60
2022/03/10 10:55:09;;;;;;;39.10;35.40;;;12.00;90.40;;;;;;4390429;32;20556;-60
2022/03/10 10:57:38;;;;;;;41.17;37.13;;;12.10;90.50;;;;;;4390018;32;20192;-60
2022/03/10 11:00:09;;;;;;;40.87;36.77;;;12.20;90.30;;;;;;4390536;32;20604;-61
2022/03/10 11:02:43;;;;;;;39.83;35.80;;;12.30;90.10;;;;;;4389680;32;20156;-61
2022/03/10 11:05:14;;;;;;;41.30;37.23;;;12.30;90.00;;;;;;4390245;32;20212;-61
2022/03/10 11:07:43;;;;;;;41.40;37.20;;;12.40;89.70;;;;;;4389982;32;20212;-60
2022/03/10 11:10:11;;;;;;;42.93;38.63;;;12.40;89.60;;;;;;4389903;32;20206;-60
2022/03/10 11:12:41;;;;;;;43.63;39.67;;;12.50;90.30;;;;;;4390128;32;20148;-61
2022/03/10 11:15:09;;;;;;;42.97;38.37;;;12.60;90.00;;;;;;4391527;32;20166;-61
2022/03/10 11:17:38;;;;;;;42.20;38.40;;;12.60;89.40;;;;;;4392699;32;20210;-61
2022/03/10 11:20:10;;;;;;;42.77;38.97;;;12.60;89.40;;;;;;4392586;32;20227;-60
2022/03/10 11:22:53;;;;;;;42.30;37.97;;;12.70;90.00;;;;;;4392555;32;20203;-60
2022/03/10 11:25:38;;;;;;;42.53;38.33;;;12.80;89.00;;;;;;4392655;32;20170;-60
2022/03/10 11:28:11;;;;;;;40.03;35.90;;;12.80;89.30;;;;;;4390954;32;20244;-60
2022/03/10 11:30:38;;;;;;;42.97;38.60;;;12.90;89.00;;;;;;4383983;32;20165;-60
2022/03/10 11:33:09;;;;;;;41.63;37.43;;;12.90;89.20;;;;;;4377811;32;20215;-60
2022/03/10 11:35:39;;;;;;;40.53;36.60;;;13.10;88.60;;;;;;4377833;32;20170;-58
2022/03/10 11:38:08;;;;;;;42.10;37.73;;;13.00;87.60;;;;;;4379086;32;20212;-60
2022/03/10 11:41:02;;;;;;;40.47;36.67;;;13.10;87.50;;;;;;4378131;32;20191;-60
2022/03/10 11:43:41;;;;;;;42.53;38.17;;;13.20;87.20;;;;;;4334877;33;20220;-61
2022/03/10 11:46:20;;;;;;;37.93;33.87;;;13.30;87.60;;;;;;4338999;33;20224;-61
2022/03/10 11:49:07;;;;;;;40.77;36.80;;;13.30;87.00;;;;;;4342027;33;20605;-61
2022/03/10 11:51:50;;;;;;;41.70;37.80;;;13.40;87.60;;;;;;4340663;33;20621;-59
2022/03/10 11:54:23;;;;;;;43.50;39.33;;;13.40;86.50;;;;;;4340087;33;20149;-62
2022/03/10 11:57:07;;;;;;;41.87;37.93;;;13.40;86.60;;;;;;4344321;33;20172;-61
2022/03/10 11:59:51;;;;;;;37.70;33.93;;;13.60;87.10;;;;;;4338848;33;20518;-59
2022/03/10 12:02:41;;;;;;;38.33;34.70;;;13.60;85.80;;;;;;4345085;33;20236;-61
2022/03/10 12:05:09;;;;;;;39.67;35.87;;;13.70;84.10;;;;;;4345317;33;20145;-61
2022/03/10 12:07:40;;;;;;;38.70;35.00;;;13.70;84.80;;;;;;4345790;33;20145;-62
2022/03/10 12:10:12;;;;;;;36.30;32.77;;;13.70;84.20;;;;;;4344910;33;20207;-62
2022/03/10 12:12:40;;;;;;;38.87;35.07;;;13.70;83.90;;;;;;4345019;33;20180;-62
2022/03/10 12:15:46;;;;;;;35.33;31.73;;;13.70;83.40;;;;;;4344683;33;20248;-62
2022/03/10 12:18:14;;;;;;;38.17;34.37;;;13.70;80.20;;;;;;4346422;32;20217;-62
2022/03/10 12:20:44;;;;;;;38.87;35.23;;;13.70;82.10;;;;;;4368453;32;20204;-61
2022/03/10 12:23:13;;;;;;;34.13;30.97;;;13.70;82.40;;;;;;4372099;32;20160;-62
2022/03/10 12:25:43;;;;;;;37.37;33.77;;;13.70;81.20;;;;;;4376810;32;20231;-61
2022/03/10 12:28:11;;;;;;;39.00;35.40;;;13.80;80.10;;;;;;4376459;32;20145;-61
2022/03/10 12:30:42;;;;;;;37.77;34.07;;;13.80;79.90;;;;;;4376735;32;20560;-62
2022/03/10 12:33:09;;;;;;;36.37;32.87;;;13.80;79.40;;;;;;4376802;32;20148;-62
2022/03/10 12:35:40;;;;;;;34.87;31.23;;;13.90;80.00;;;;;;4377610;32;20171;-62
2022/03/10 12:38:10;;;;;;;35.20;31.70;;;13.90;79.90;;;;;;4376528;32;20157;-60
2022/03/10 12:40:42;;;;;;;36.37;32.73;;;13.90;80.00;;;;;;4371483;32;20502;-61
2022/03/10 12:43:11;;;;;;;37.03;33.13;;;13.90;80.00;;;;;;4376175;32;20603;-61
2022/03/10 12:45:45;;;;;;;40.20;35.87;;;13.90;80.10;;;;;;4373500;32;20500;-60
2022/03/10 12:48:15;;;;;;;42.20;38.17;;;13.80;81.00;;;;;;4371106;32;20194;-61